Time;durP1;ratioP1;P1;durP2;ratioP2;P2;SDS_P1;SDS_P2;PMS_P1;PMS_P2;Temp;Humidity;BMP_temperature;BMP_pressure;BME280_temperature;BME280_humidity;BME280_pressure;Samples;Min_cycle;Max_cycle;Signal;HPM_P1;HPM_P2
2022/05/26 00:00:51;;;;;;;8.88;1.45;;;;;;;;;;5024750;28;20803;-72
2022/05/26 00:03:17;;;;;;;5.80;1.10;;;;;;;;;;5022278;28;20109;-71
2022/05/26 00:05:43;;;;;;;4.45;0.88;;;;;;;;;;5021413;28;20463;-71
2022/05/26 00:08:10;;;;;;;3.10;0.90;;;;;;;;;;5023788;28;20030;-71
2022/05/26 00:10:36;;;;;;;5.32;0.95;;;;;;;;;;5025160;28;20033;-71
2022/05/26 00:13:02;;;;;;;5.75;0.90;;;;;;;;;;5023425;28;20108;-71
2022/05/26 00:15:30;;;;;;;4.05;1.20;;;;;;;;;;5027032;28;20760;-72
2022/05/26 00:17:56;;;;;;;3.45;0.70;;;;;;;;;;5025062;28;20052;-71
2022/05/26 00:20:22;;;;;;;4.40;0.90;;;;;;;;;;5023849;28;20037;-72
2022/05/26 00:22:48;;;;;;;6.80;1.60;;;;;;;;;;5023020;28;20538;-71
2022/05/26 00:25:14;;;;;;;5.95;1.08;;;;;;;;;;5026048;28;20132;-72
2022/05/26 00:27:40;;;;;;;8.50;1.15;;;;;;;;;;5017308;28;20160;-72
2022/05/26 00:30:06;;;;;;;5.60;1.73;;;;;;;;;;5022959;28;20094;-72
2022/05/26 00:32:33;;;;;;;6.82;1.10;;;;;;;;;;5023904;28;20107;-72
2022/05/26 00:34:59;;;;;;;5.47;1.35;;;;;;;;;;5020796;28;20029;-72
2022/05/26 00:37:25;;;;;;;5.53;1.58;;;;;;;;;;5022438;28;20057;-72
2022/05/26 00:39:52;;;;;;;5.63;1.60;;;;;;;;;;5019853;28;20040;-72
2022/05/26 00:42:18;;;;;;;9.45;1.58;;;;;;;;;;5022344;28;20025;-72
2022/05/26 00:44:44;;;;;;;6.03;1.60;;;;;;;;;;5026626;28;20041;-72
2022/05/26 00:47:17;;;;;;;6.93;1.55;;;;;;;;;;5021315;28;20041;-72
2022/05/26 00:49:46;;;;;;;8.63;1.80;;;;;;;;;;5024682;28;20111;-72
2022/05/26 00:52:16;;;;;;;7.88;1.63;;;;;;;;;;5021956;28;20045;-72
2022/05/26 00:54:43;;;;;;;8.15;2.55;;;;;;;;;;5024989;28;20026;-72
2022/05/26 00:57:13;;;;;;;7.55;1.70;;;;;;;;;;5021662;28;20048;-72
2022/05/26 00:59:42;;;;;;;6.57;1.45;;;;;;;;;;5021227;28;20036;-71
2022/05/26 01:02:08;;;;;;;7.50;1.00;;;;;;;;;;5023869;28;20025;-72
2022/05/26 01:04:41;;;;;;;3.80;1.10;;;;;;;;;;5022168;28;20729;-72
2022/05/26 01:07:23;;;;;;;7.15;1.00;;;;;;;;;;5024695;28;20452;-72
2022/05/26 01:09:49;;;;;;;9.80;1.10;;;;;;;;;;5023721;28;20034;-71
2022/05/26 01:12:15;;;;;;;5.22;1.20;;;;;;;;;;5017650;28;20750;-71
2022/05/26 01:14:43;;;;;;;6.07;1.58;;;;;;;;;;5020438;28;20033;-72
2022/05/26 01:17:09;;;;;;;7.80;1.13;;;;;;;;;;5017754;28;20036;-71
2022/05/26 01:19:54;;;;;;;8.52;1.25;;;;;;;;;;5020411;28;20029;-72
2022/05/26 01:22:38;;;;;;;4.18;1.10;;;;;;;;;;5017432;28;20048;-71
2022/05/26 01:25:13;;;;;;;7.43;1.33;;;;;;;;;;5020574;28;20029;-71
2022/05/26 01:27:45;;;;;;;5.50;1.20;;;;;;;;;;5019472;28;20066;-72
2022/05/26 01:30:23;;;;;;;4.87;1.27;;;;;;;;;;5021459;28;20037;-71
2022/05/26 01:32:55;;;;;;;8.57;1.60;;;;;;;;;;5018597;28;20769;-72
2022/05/26 01:35:30;;;;;;;8.32;1.80;;;;;;;;;;5019558;28;20029;-71
2022/05/26 01:37:59;;;;;;;11.65;2.47;;;;;;;;;;5025292;28;20033;-72
2022/05/26 01:40:25;;;;;;;8.15;2.08;;;;;;;;;;5019312;28;20466;-71
2022/05/26 01:43:10;;;;;;;7.80;1.95;;;;;;;;;;5021080;28;20535;-71
2022/05/26 01:45:39;;;;;;;6.70;1.70;;;;;;;;;;5031129;28;20536;-73
2022/05/26 01:48:20;;;;;;;8.82;1.80;;;;;;;;;;5023652;28;20037;-73
2022/05/26 01:51:04;;;;;;;6.60;1.77;;;;;;;;;;5023658;28;20566;-73
2022/05/26 01:53:49;;;;;;;4.65;1.55;;;;;;;;;;5019075;28;20079;-74
2022/05/26 01:56:35;;;;;;;9.13;2.10;;;;;;;;;;5023923;28;20040;-71
2022/05/26 01:59:10;;;;;;;7.07;1.77;;;;;;;;;;5020364;28;20759;-74
2022/05/26 02:01:38;;;;;;;6.03;1.40;;;;;;;;;;5020388;28;20025;-72
2022/05/26 02:04:06;;;;;;;7.28;1.83;;;;;;;;;;5021079;28;20108;-73
2022/05/26 02:06:35;;;;;;;4.15;1.23;;;;;;;;;;5022706;28;20112;-73
2022/05/26 02:09:06;;;;;;;13.30;2.15;;;;;;;;;;5021513;28;20030;-74
2022/05/26 02:11:33;;;;;;;4.18;1.13;;;;;;;;;;5025848;28;20040;-72
2022/05/26 02:14:07;;;;;;;3.80;1.10;;;;;;;;;;5023156;28;20990;-73
2022/05/26 02:16:42;;;;;;;4.20;1.10;;;;;;;;;;5020243;28;20044;-74
2022/05/26 02:19:11;;;;;;;5.28;1.33;;;;;;;;;;5021272;28;20048;-74
2022/05/26 02:22:01;;;;;;;4.68;1.20;;;;;;;;;;5020022;28;20032;-73
2022/05/26 02:24:32;;;;;;;3.20;0.88;;;;;;;;;;5018583;28;20376;-74
2022/05/26 02:26:58;;;;;;;6.65;1.33;;;;;;;;;;5018297;28;20072;-73
2022/05/26 02:32:11;;;;;;;3.72;0.90;;;;;;;;;;5019882;28;20040;-73
2022/05/26 02:34:37;;;;;;;4.85;0.85;;;;;;;;;;5017020;28;20062;-73
2022/05/26 02:37:04;;;;;;;2.40;0.70;;;;;;;;;;5021174;28;20040;-73
2022/05/26 02:39:30;;;;;;;4.47;0.75;;;;;;;;;;5021332;28;20475;-73
2022/05/26 02:41:56;;;;;;;1.98;0.50;;;;;;;;;;5021722;28;20043;-73
2022/05/26 02:44:25;;;;;;;3.88;0.50;;;;;;;;;;5020959;28;20203;-73
2022/05/26 02:46:55;;;;;;;4.05;0.63;;;;;;;;;;5023029;28;20033;-73
2022/05/26 02:49:21;;;;;;;4.10;1.10;;;;;;;;;;5020681;28;20056;-74
2022/05/26 02:51:47;;;;;;;4.47;1.00;;;;;;;;;;5021480;28;20034;-73
2022/05/26 02:54:12;;;;;;;4.93;1.10;;;;;;;;;;5022338;28;20033;-73
2022/05/26 02:56:45;;;;;;;5.15;1.10;;;;;;;;;;5018183;28;20786;-73
2022/05/26 02:59:26;;;;;;;3.30;0.98;;;;;;;;;;5020839;28;20178;-73
2022/05/26 03:01:52;;;;;;;2.40;0.60;;;;;;;;;;5023077;28;20029;-73
2022/05/26 03:04:21;;;;;;;5.57;1.05;;;;;;;;;;5019994;28;20156;-73
2022/05/26 03:06:49;;;;;;;6.80;1.52;;;;;;;;;;5025376;28;20359;-73
2022/05/26 03:09:15;;;;;;;4.18;1.30;;;;;;;;;;5024342;28;20469;-74
2022/05/26 03:11:43;;;;;;;4.47;1.38;;;;;;;;;;5022902;28;20051;-73
2022/05/26 03:14:09;;;;;;;7.95;2.33;;;;;;;;;;5018445;28;20057;-73
2022/05/26 03:16:35;;;;;;;5.35;1.08;;;;;;;;;;5018969;28;20515;-73
2022/05/26 03:19:01;;;;;;;5.65;1.10;;;;;;;;;;5021881;28;20087;-73
2022/05/26 03:21:27;;;;;;;5.32;1.20;;;;;;;;;;5020190;28;20477;-73
2022/05/26 03:23:53;;;;;;;4.90;0.90;;;;;;;;;;5018007;28;20109;-73
2022/05/26 03:26:19;;;;;;;6.30;1.20;;;;;;;;;;5022669;28;20514;-73
2022/05/26 03:28:47;;;;;;;6.80;1.63;;;;;;;;;;5019793;28;20045;-72
2022/05/26 03:31:14;;;;;;;4.57;0.95;;;;;;;;;;5019355;28;20080;-73
2022/05/26 03:41:53;;;;;;;2.90;0.60;;;;;;;;;;5023909;28;20064;-73
2022/05/26 03:44:20;;;;;;;4.88;0.73;;;;;;;;;;5020923;28;20029;-73
2022/05/26 03:46:47;;;;;;;4.35;0.70;;;;;;;;;;5020218;28;20117;-72
2022/05/26 03:49:13;;;;;;;3.25;0.93;;;;;;;;;;5024607;28;20034;-73
2022/05/26 03:51:39;;;;;;;1.88;0.70;;;;;;;;;;5021068;28;20069;-73
2022/05/26 03:54:06;;;;;;;2.38;0.70;;;;;;;;;;5020914;28;20025;-73
2022/05/26 03:56:32;;;;;;;4.82;0.95;;;;;;;;;;5019770;28;20486;-73
2022/05/26 03:58:58;;;;;;;2.75;0.70;;;;;;;;;;5016536;28;20022;-73
2022/05/26 04:01:24;;;;;;;4.53;0.85;;;;;;;;;;5011893;28;20045;-72
2022/05/26 04:03:50;;;;;;;5.53;1.00;;;;;;;;;;5019314;28;20096;-73
2022/05/26 04:06:17;;;;;;;3.78;0.70;;;;;;;;;;5023406;28;20038;-73
2022/05/26 04:08:43;;;;;;;5.65;0.90;;;;;;;;;;5019490;28;20082;-73
2022/05/26 04:11:09;;;;;;;2.13;0.80;;;;;;;;;;5017973;28;20069;-73
2022/05/26 04:13:35;;;;;;;3.22;0.90;;;;;;;;;;5017108;28;20511;-73
2022/05/26 04:16:01;;;;;;;2.10;0.70;;;;;;;;;;5018269;28;20026;-73
2022/05/26 04:18:27;;;;;;;5.55;0.80;;;;;;;;;;5019542;28;20029;-73
2022/05/26 04:20:53;;;;;;;1.85;0.63;;;;;;;;;;5019753;28;20081;-72
2022/05/26 04:23:19;;;;;;;4.65;0.60;;;;;;;;;;5020184;28;20415;-72
2022/05/26 04:25:45;;;;;;;3.75;0.73;;;;;;;;;;5018471;28;20040;-73
2022/05/26 04:28:10;;;;;;;5.50;1.02;;;;;;;;;;5021360;28;20563;-73
2022/05/26 04:30:37;;;;;;;1.98;0.52;;;;;;;;;;5023685;28;20143;-73
2022/05/26 04:33:03;;;;;;;3.83;0.60;;;;;;;;;;5026158;28;20368;-72
2022/05/26 04:35:28;;;;;;;1.95;0.68;;;;;;;;;;5025697;28;20048;-73
2022/05/26 04:37:54;;;;;;;5.60;0.90;;;;;;;;;;5019288;28;20045;-73
2022/05/26 04:40:21;;;;;;;5.53;0.70;;;;;;;;;;5025259;28;20644;-73
2022/05/26 04:42:47;;;;;;;6.18;0.63;;;;;;;;;;5018569;28;20037;-72
2022/05/26 04:45:13;;;;;;;2.88;0.82;;;;;;;;;;5021950;28;20033;-73
2022/05/26 04:47:39;;;;;;;2.88;0.73;;;;;;;;;;5022385;28;20045;-72
2022/05/26 04:50:06;;;;;;;3.38;0.63;;;;;;;;;;5020843;28;20029;-73
2022/05/26 04:52:33;;;;;;;3.78;0.63;;;;;;;;;;5023024;28;20475;-73
2022/05/26 04:54:59;;;;;;;3.10;0.75;;;;;;;;;;5025368;28;20021;-73
2022/05/26 04:57:25;;;;;;;2.92;0.90;;;;;;;;;;5024423;28;20034;-73
2022/05/26 04:59:51;;;;;;;4.05;0.80;;;;;;;;;;5024052;28;20079;-73
2022/05/26 05:02:19;;;;;;;3.75;0.70;;;;;;;;;;5025970;28;20034;-73
2022/05/26 05:04:48;;;;;;;2.67;0.60;;;;;;;;;;5021941;28;20120;-72
2022/05/26 05:07:15;;;;;;;2.42;0.82;;;;;;;;;;5022923;28;20045;-72
2022/05/26 05:09:41;;;;;;;3.70;0.90;;;;;;;;;;5024322;28;20026;-73
2022/05/26 05:12:08;;;;;;;6.10;0.75;;;;;;;;;;5017613;28;20140;-73
2022/05/26 05:14:40;;;;;;;4.25;0.73;;;;;;;;;;5024791;28;20056;-73
2022/05/26 05:17:06;;;;;;;2.55;0.77;;;;;;;;;;5023601;28;20136;-73
2022/05/26 05:19:32;;;;;;;4.68;1.05;;;;;;;;;;5025923;28;20562;-73
2022/05/26 05:22:02;;;;;;;5.45;0.70;;;;;;;;;;5019550;28;20109;-73
2022/05/26 05:24:32;;;;;;;6.85;0.90;;;;;;;;;;5022331;28;20379;-73
2022/05/26 05:27:01;;;;;;;3.83;0.70;;;;;;;;;;5020684;28;20145;-73
2022/05/26 05:29:30;;;;;;;2.58;0.60;;;;;;;;;;5017350;28;20092;-73
2022/05/26 05:31:59;;;;;;;4.82;0.90;;;;;;;;;;5019159;28;20030;-73
2022/05/26 05:34:37;;;;;;;6.22;1.00;;;;;;;;;;5020434;28;20033;-73
2022/05/26 05:37:05;;;;;;;4.55;1.48;;;;;;;;;;5022940;28;20041;-73
2022/05/26 05:39:31;;;;;;;4.43;1.00;;;;;;;;;;5021503;28;20563;-73
2022/05/26 05:41:58;;;;;;;3.95;0.90;;;;;;;;;;5019721;28;20029;-73
2022/05/26 05:44:26;;;;;;;1.92;0.60;;;;;;;;;;5024806;28;20147;-73
2022/05/26 05:46:54;;;;;;;4.03;0.70;;;;;;;;;;5016819;28;20049;-73
2022/05/26 05:49:27;;;;;;;3.60;1.27;;;;;;;;;;5021953;28;20079;-73
2022/05/26 05:51:54;;;;;;;4.35;1.38;;;;;;;;;;5022691;28;20056;-73
2022/05/26 05:54:20;;;;;;;5.20;1.85;;;;;;;;;;5021149;28;20025;-73
2022/05/26 05:56:47;;;;;;;4.15;1.23;;;;;;;;;;5024933;28;20075;-73
2022/05/26 05:59:12;;;;;;;6.30;1.35;;;;;;;;;;5024720;28;20033;-73
2022/05/26 06:01:39;;;;;;;3.42;1.20;;;;;;;;;;5020328;28;20044;-73
2022/05/26 06:04:05;;;;;;;5.85;1.40;;;;;;;;;;5021953;28;20034;-73
2022/05/26 06:06:38;;;;;;;3.60;1.50;;;;;;;;;;5020212;28;20037;-73
2022/05/26 06:09:05;;;;;;;5.90;1.23;;;;;;;;;;5022585;28;20040;-73
2022/05/26 06:11:31;;;;;;;5.88;0.90;;;;;;;;;;5021446;28;20116;-73
2022/05/26 06:13:57;;;;;;;5.00;0.90;;;;;;;;;;5019733;28;20183;-74
2022/05/26 06:16:24;;;;;;;3.50;0.80;;;;;;;;;;5019335;28;20650;-73
2022/05/26 06:18:50;;;;;;;3.55;0.65;;;;;;;;;;5017982;28;20112;-73
2022/05/26 06:21:17;;;;;;;9.63;0.88;;;;;;;;;;5020059;28;20044;-73
2022/05/26 06:23:43;;;;;;;2.47;0.68;;;;;;;;;;5018195;28;20029;-73
2022/05/26 06:26:09;;;;;;;2.30;0.65;;;;;;;;;;5018869;28;20091;-73
2022/05/26 06:31:22;;;;;;;4.80;0.90;;;;;;;;;;5018678;28;20053;-73
2022/05/26 06:39:18;;;;;;;5.80;0.75;;;;;;;;;;5020253;28;20083;-73
2022/05/26 06:44:29;;;;;;;3.40;0.60;;;;;;;;;;5022928;28;20156;-73
2022/05/26 06:46:55;;;;;;;3.72;0.65;;;;;;;;;;5022639;28;20653;-73
2022/05/26 06:49:21;;;;;;;3.53;0.70;;;;;;;;;;5020774;28;20033;-73
2022/05/26 06:51:46;;;;;;;3.15;0.60;;;;;;;;;;5016292;28;20916;-73
2022/05/26 06:54:12;;;;;;;4.30;0.73;;;;;;;;;;5019681;28;20029;-73
2022/05/26 06:56:39;;;;;;;1.95;0.60;;;;;;;;;;5025988;28;20037;-73
2022/05/26 06:59:05;;;;;;;3.05;0.60;;;;;;;;;;5022983;28;20672;-72
2022/05/26 07:01:31;;;;;;;4.03;0.60;;;;;;;;;;5021960;28;20936;-72
2022/05/26 07:03:57;;;;;;;3.10;0.60;;;;;;;;;;5019715;28;20037;-73
2022/05/26 07:06:25;;;;;;;1.25;0.50;;;;;;;;;;5020269;28;20088;-72
2022/05/26 07:08:51;;;;;;;2.70;0.52;;;;;;;;;;5018776;28;20033;-73
2022/05/26 07:11:18;;;;;;;2.97;0.77;;;;;;;;;;5017433;28;20053;-71
2022/05/26 07:13:45;;;;;;;2.22;0.60;;;;;;;;;;5022228;28;20029;-72
2022/05/26 07:16:11;;;;;;;3.80;0.77;;;;;;;;;;5026833;28;20068;-72
2022/05/26 07:18:37;;;;;;;2.42;0.60;;;;;;;;;;5022573;28;20037;-72
2022/05/26 07:21:05;;;;;;;2.25;0.70;;;;;;;;;;5021023;28;20077;-72
2022/05/26 07:23:31;;;;;;;3.10;0.60;;;;;;;;;;5023112;28;20423;-71
2022/05/26 07:25:57;;;;;;;1.90;0.60;;;;;;;;;;5023715;28;20060;-72
2022/05/26 07:28:23;;;;;;;3.47;0.95;;;;;;;;;;5019696;28;20062;-71
2022/05/26 07:30:51;;;;;;;2.30;0.60;;;;;;;;;;5016019;28;20076;-72
2022/05/26 07:33:19;;;;;;;1.88;0.50;;;;;;;;;;5019360;28;20066;-72
2022/05/26 07:35:48;;;;;;;2.60;0.68;;;;;;;;;;5024229;28;20037;-72
2022/05/26 07:41:17;;;;;;;2.15;0.60;;;;;;;;;;5018642;28;20047;-73
2022/05/26 07:43:47;;;;;;;2.60;0.60;;;;;;;;;;5020326;28;20083;-72
2022/05/26 07:46:13;;;;;;;2.28;0.60;;;;;;;;;;5020506;28;20037;-73
2022/05/26 07:48:39;;;;;;;3.35;0.70;;;;;;;;;;5021995;28;20025;-72
2022/05/26 07:51:05;;;;;;;4.25;0.70;;;;;;;;;;5021449;28;20509;-72
2022/05/26 07:53:31;;;;;;;2.67;0.47;;;;;;;;;;5021101;28;20036;-72
2022/05/26 07:55:57;;;;;;;3.53;0.50;;;;;;;;;;5019608;28;20112;-72
2022/05/26 07:58:23;;;;;;;9.15;0.63;;;;;;;;;;5021853;28;20083;-72
2022/05/26 08:00:52;;;;;;;3.05;0.60;;;;;;;;;;5019674;28;20053;-72
2022/05/26 08:03:18;;;;;;;8.43;0.70;;;;;;;;;;5017763;28;20558;-72
2022/05/26 08:05:44;;;;;;;1.55;0.57;;;;;;;;;;5018383;28;20045;-72
2022/05/26 08:08:10;;;;;;;2.88;0.40;;;;;;;;;;5021896;28;20100;-72
2022/05/26 08:10:37;;;;;;;3.65;0.68;;;;;;;;;;5022741;28;20037;-71
2022/05/26 08:13:03;;;;;;;3.35;0.80;;;;;;;;;;5021921;28;20028;-72
2022/05/26 08:15:31;;;;;;;7.03;0.68;;;;;;;;;;5021463;28;20026;-72
2022/05/26 08:17:57;;;;;;;3.10;0.68;;;;;;;;;;5025031;28;20072;-72
2022/05/26 08:20:23;;;;;;;3.20;0.40;;;;;;;;;;5020936;28;20041;-71
2022/05/26 08:22:49;;;;;;;2.45;0.60;;;;;;;;;;5021746;28;20038;-72
2022/05/26 08:25:15;;;;;;;1.25;0.50;;;;;;;;;;5017436;28;20495;-72
2022/05/26 08:27:41;;;;;;;2.75;0.68;;;;;;;;;;5022010;28;20149;-72
2022/05/26 08:30:08;;;;;;;6.60;0.50;;;;;;;;;;5022236;28;20046;-71
2022/05/26 08:32:34;;;;;;;1.52;0.50;;;;;;;;;;5021095;28;20112;-72
2022/05/26 08:35:01;;;;;;;4.50;0.63;;;;;;;;;;5021842;28;20033;-71
2022/05/26 08:37:27;;;;;;;1.52;0.60;;;;;;;;;;5023435;28;20727;-72
2022/05/26 08:39:53;;;;;;;3.55;0.60;;;;;;;;;;5024066;28;20043;-72
2022/05/26 08:42:21;;;;;;;4.75;0.50;;;;;;;;;;5021985;28;20038;-72
2022/05/26 08:44:49;;;;;;;4.00;0.55;;;;;;;;;;5025540;28;20033;-72
2022/05/26 08:47:20;;;;;;;2.22;0.50;;;;;;;;;;5024600;28;20033;-72
2022/05/26 08:49:56;;;;;;;4.97;0.55;;;;;;;;;;5020684;28;20037;-72
2022/05/26 08:52:28;;;;;;;4.28;0.60;;;;;;;;;;5021965;28;20049;-72
2022/05/26 08:54:58;;;;;;;6.28;0.60;;;;;;;;;;5021109;28;20033;-72
2022/05/26 08:57:26;;;;;;;2.13;0.57;;;;;;;;;;5015798;28;20038;-72
2022/05/26 08:59:52;;;;;;;3.75;0.60;;;;;;;;;;5022472;28;20442;-72
2022/05/26 09:02:18;;;;;;;2.50;0.45;;;;;;;;;;5026476;28;20033;-72
2022/05/26 09:04:45;;;;;;;2.15;0.45;;;;;;;;;;5020126;28;20034;-72
2022/05/26 09:12:59;;;;;;;2.08;0.40;;;;;;;;;;5025275;28;20045;-72
2022/05/26 09:15:26;;;;;;;2.25;0.47;;;;;;;;;;5024957;28;20549;-71
2022/05/26 09:17:52;;;;;;;3.20;0.50;;;;;;;;;;5024046;28;20033;-72
2022/05/26 09:20:30;;;;;;;3.90;0.60;;;;;;;;;;5023527;28;20048;-72
2022/05/26 09:23:07;;;;;;;3.53;0.40;;;;;;;;;;5025668;28;20617;-72
2022/05/26 09:25:38;;;;;;;2.45;0.40;;;;;;;;;;5019968;28;20315;-72
2022/05/26 09:28:05;;;;;;;1.13;0.40;;;;;;;;;;5019620;28;20119;-72
2022/05/26 09:30:32;;;;;;;2.67;0.50;;;;;;;;;;5027128;28;20477;-71
2022/05/26 09:32:58;;;;;;;2.13;0.40;;;;;;;;;;5018993;28;20375;-72
2022/05/26 09:35:27;;;;;;;1.77;0.40;;;;;;;;;;5025046;28;20079;-71
2022/05/26 09:37:54;;;;;;;1.08;0.40;;;;;;;;;;5025482;28;20521;-72
2022/05/26 09:40:28;;;;;;;1.70;0.30;;;;;;;;;;5023469;28;20041;-72
2022/05/26 09:43:17;;;;;;;2.35;0.50;;;;;;;;;;5021248;28;20069;-72
2022/05/26 09:45:44;;;;;;;2.17;0.45;;;;;;;;;;5015637;28;20084;-72
2022/05/26 09:48:18;;;;;;;6.32;0.45;;;;;;;;;;5017857;28;20030;-72
2022/05/26 09:50:48;;;;;;;1.35;0.60;;;;;;;;;;5025385;28;20768;-71
2022/05/26 09:53:27;;;;;;;2.50;0.30;;;;;;;;;;5024895;28;20029;-72
2022/05/26 09:55:55;;;;;;;1.60;0.50;;;;;;;;;;5022089;28;20040;-72
2022/05/26 09:58:47;;;;;;;2.08;0.60;;;;;;;;;;5024872;28;20033;-72
2022/05/26 10:01:32;;;;;;;3.08;0.50;;;;;;;;;;5020566;28;20049;-72
2022/05/26 10:04:07;;;;;;;5.40;0.60;;;;;;;;;;5021303;28;20033;-72
2022/05/26 10:06:35;;;;;;;2.63;0.68;;;;;;;;;;5021756;28;20087;-72
2022/05/26 10:09:07;;;;;;;3.83;0.43;;;;;;;;;;5021314;28;20110;-72
2022/05/26 10:11:33;;;;;;;3.00;0.60;;;;;;;;;;5020688;28;20036;-72
2022/05/26 10:14:02;;;;;;;2.80;0.30;;;;;;;;;;5021752;28;20025;-72
2022/05/26 10:16:35;;;;;;;2.63;0.35;;;;;;;;;;5018858;28;20477;-72
2022/05/26 10:19:16;;;;;;;2.08;0.30;;;;;;;;;;5020423;28;20095;-72
2022/05/26 10:21:51;;;;;;;1.90;0.50;;;;;;;;;;5022379;28;20045;-72
2022/05/26 10:24:36;;;;;;;2.28;0.50;;;;;;;;;;5025220;28;20461;-71
2022/05/26 10:27:02;;;;;;;1.60;0.40;;;;;;;;;;5021950;28;20667;-71
2022/05/26 10:29:31;;;;;;;4.00;0.50;;;;;;;;;;5021539;28;20037;-72
2022/05/26 10:32:00;;;;;;;1.85;0.40;;;;;;;;;;5021576;28;20049;-72
2022/05/26 10:34:35;;;;;;;4.93;0.70;;;;;;;;;;5022417;28;20022;-72
2022/05/26 10:37:07;;;;;;;3.55;0.80;;;;;;;;;;5018909;28;20103;-72
2022/05/26 10:39:52;;;;;;;3.10;0.35;;;;;;;;;;5023557;28;20105;-72
2022/05/26 10:42:18;;;;;;;4.28;0.70;;;;;;;;;;5018604;28;20071;-71
2022/05/26 10:44:51;;;;;;;3.67;0.63;;;;;;;;;;5019515;28;20124;-71
2022/05/26 10:47:23;;;;;;;4.78;0.60;;;;;;;;;;5021536;28;20601;-73
2022/05/26 10:49:55;;;;;;;3.25;0.50;;;;;;;;;;5019894;28;20022;-72
2022/05/26 10:52:27;;;;;;;2.50;0.50;;;;;;;;;;5022630;28;20487;-72
2022/05/26 10:54:56;;;;;;;2.83;0.50;;;;;;;;;;5021916;28;20026;-72
2022/05/26 10:57:38;;;;;;;4.82;0.50;;;;;;;;;;5015266;28;20486;-72
2022/05/26 11:00:04;;;;;;;2.25;0.40;;;;;;;;;;5013305;28;20041;-72
2022/05/26 11:02:39;;;;;;;1.52;0.40;;;;;;;;;;5014652;28;20038;-72
2022/05/26 11:05:17;;;;;;;2.05;0.38;;;;;;;;;;5019146;28;20079;-72
2022/05/26 11:07:53;;;;;;;2.60;0.68;;;;;;;;;;5022317;28;20033;-72
2022/05/26 11:10:27;;;;;;;1.42;0.38;;;;;;;;;;5020330;28;20080;-72
2022/05/26 11:13:09;;;;;;;4.15;0.40;;;;;;;;;;5021925;28;20120;-72
2022/05/26 11:18:26;;;;;;;5.20;0.50;;;;;;;;;;5019473;28;20118;-72
2022/05/26 11:20:56;;;;;;;2.17;0.30;;;;;;;;;;5018932;28;20037;-72
2022/05/26 11:23:23;;;;;;;3.97;0.40;;;;;;;;;;5021621;28;20060;-72
2022/05/26 11:25:49;;;;;;;2.13;0.40;;;;;;;;;;5022349;28;20076;-72
2022/05/26 11:28:15;;;;;;;3.65;0.30;;;;;;;;;;5021233;28;20088;-72
2022/05/26 11:36:36;;;;;;;2.95;0.40;;;;;;;;;;5024740;28;20043;-71
2022/05/26 11:39:06;;;;;;;2.20;0.40;;;;;;;;;;5020178;28;20051;-72
2022/05/26 11:41:36;;;;;;;1.48;0.57;;;;;;;;;;5015864;28;20657;-72
2022/05/26 11:44:02;;;;;;;3.30;0.68;;;;;;;;;;5022745;28;20038;-72
2022/05/26 11:46:44;;;;;;;2.40;0.30;;;;;;;;;;5016181;28;20958;-72
2022/05/26 11:49:12;;;;;;;6.70;0.52;;;;;;;;;;5014822;28;20170;-72
2022/05/26 11:51:42;;;;;;;3.60;0.40;;;;;;;;;;5013908;28;20132;-72
2022/05/26 11:54:09;;;;;;;2.15;0.40;;;;;;;;;;5018001;28;20250;-72
2022/05/26 11:56:37;;;;;;;3.70;0.50;;;;;;;;;;5022387;28;20033;-72
2022/05/26 11:59:23;;;;;;;3.40;0.50;;;;;;;;;;5020744;28;20038;-72
2022/05/26 12:01:59;;;;;;;5.47;0.68;;;;;;;;;;5018848;28;20057;-71
2022/05/26 12:04:30;;;;;;;2.25;0.60;;;;;;;;;;5017489;28;20043;-72
2022/05/26 12:06:56;;;;;;;2.75;0.47;;;;;;;;;;5016755;28;20637;-72
2022/05/26 12:09:42;;;;;;;3.78;0.68;;;;;;;;;;5017769;28;20041;-71
2022/05/26 12:12:18;;;;;;;4.55;0.40;;;;;;;;;;5018542;28;20033;-72
2022/05/26 12:14:44;;;;;;;2.47;0.40;;;;;;;;;;5019322;28;20395;-72
2022/05/26 12:17:29;;;;;;;4.70;0.40;;;;;;;;;;5017424;28;20040;-72
2022/05/26 12:19:56;;;;;;;6.57;0.43;;;;;;;;;;5017861;28;20036;-72
2022/05/26 12:22:22;;;;;;;1.65;0.47;;;;;;;;;;5017196;28;20041;-72
2022/05/26 12:25:01;;;;;;;3.63;0.70;;;;;;;;;;5019567;28;20028;-72
2022/05/26 12:27:46;;;;;;;2.65;0.35;;;;;;;;;;5021094;28;20570;-72
2022/05/26 12:30:28;;;;;;;1.85;0.35;;;;;;;;;;5020317;28;20040;-72
2022/05/26 12:32:55;;;;;;;4.63;0.50;;;;;;;;;;5018010;28;20047;-72
2022/05/26 12:35:39;;;;;;;2.38;0.30;;;;;;;;;;5020496;28;20104;-72
2022/05/26 12:38:24;;;;;;;2.50;0.35;;;;;;;;;;5018065;28;20044;-72
2022/05/26 12:40:51;;;;;;;1.58;0.40;;;;;;;;;;5015659;28;20072;-72
2022/05/26 12:43:29;;;;;;;3.00;0.38;;;;;;;;;;5019297;28;20049;-72
2022/05/26 12:46:20;;;;;;;3.33;0.30;;;;;;;;;;5016890;28;20037;-72
2022/05/26 12:48:50;;;;;;;2.08;0.40;;;;;;;;;;5017889;28;20048;-72
2022/05/26 12:51:16;;;;;;;5.28;0.40;;;;;;;;;;5021937;28;20411;-72
2022/05/26 12:53:48;;;;;;;4.20;0.52;;;;;;;;;;5016094;28;20686;-72
2022/05/26 12:56:19;;;;;;;3.75;0.40;;;;;;;;;;5019738;28;20410;-72
2022/05/26 12:58:51;;;;;;;2.15;0.40;;;;;;;;;;5021823;28;20425;-72
2022/05/26 13:01:20;;;;;;;3.55;0.30;;;;;;;;;;5025192;28;20100;-72
2022/05/26 13:03:48;;;;;;;1.15;0.45;;;;;;;;;;5023949;28;20041;-72
2022/05/26 13:06:20;;;;;;;2.42;0.43;;;;;;;;;;5022873;28;20041;-72
2022/05/26 13:08:48;;;;;;;1.75;0.40;;;;;;;;;;5027016;28;20619;-72
2022/05/26 13:11:16;;;;;;;1.45;0.30;;;;;;;;;;5026630;28;20046;-72
2022/05/26 13:13:43;;;;;;;3.30;0.63;;;;;;;;;;5022914;28;20531;-72
2022/05/26 13:16:31;;;;;;;1.75;0.30;;;;;;;;;;5025300;28;20042;-72
2022/05/26 13:19:07;;;;;;;3.25;0.30;;;;;;;;;;5019222;28;20082;-73
2022/05/26 13:21:33;;;;;;;2.65;0.43;;;;;;;;;;5023793;28;20035;-72
2022/05/26 13:24:00;;;;;;;1.15;0.30;;;;;;;;;;5026633;28;20376;-72
2022/05/26 13:26:26;;;;;;;2.33;0.38;;;;;;;;;;5024379;28;20053;-72
2022/05/26 13:28:54;;;;;;;2.30;0.63;;;;;;;;;;5023540;28;20075;-72
2022/05/26 13:34:06;;;;;;;2.28;0.40;;;;;;;;;;5018831;28;20557;-72
2022/05/26 13:36:35;;;;;;;3.42;0.40;;;;;;;;;;5024865;28;20136;-72
2022/05/26 13:39:21;;;;;;;3.05;0.30;;;;;;;;;;5021024;28;20036;-72
2022/05/26 13:41:50;;;;;;;3.67;0.52;;;;;;;;;;5023689;28;20122;-72
2022/05/26 13:44:18;;;;;;;1.77;0.35;;;;;;;;;;5017230;28;20069;-72
2022/05/26 13:46:48;;;;;;;1.95;0.40;;;;;;;;;;5021925;28;20526;-72
2022/05/26 13:49:17;;;;;;;1.77;0.50;;;;;;;;;;5015800;28;20042;-72
2022/05/26 13:51:44;;;;;;;2.20;0.40;;;;;;;;;;5019781;28;20415;-72
2022/05/26 13:54:19;;;;;;;2.83;0.60;;;;;;;;;;5019175;28;20080;-72
2022/05/26 13:56:47;;;;;;;2.13;0.40;;;;;;;;;;5023943;28;20408;-72
2022/05/26 13:59:14;;;;;;;2.78;0.35;;;;;;;;;;5024731;28;20060;-72
2022/05/26 14:01:49;;;;;;;1.27;0.30;;;;;;;;;;5025503;28;20659;-72
2022/05/26 14:04:30;;;;;;;4.53;0.60;;;;;;;;;;5022327;28;20045;-72
2022/05/26 14:06:56;;;;;;;2.60;0.40;;;;;;;;;;5024615;28;20164;-72
2022/05/26 14:09:30;;;;;;;2.08;0.30;;;;;;;;;;5020647;28;20132;-72
2022/05/26 14:12:03;;;;;;;1.35;0.30;;;;;;;;;;5021897;28;20598;-72
2022/05/26 14:14:38;;;;;;;3.95;0.50;;;;;;;;;;5025375;28;20033;-72
2022/05/26 14:17:06;;;;;;;0.70;0.30;;;;;;;;;;5022896;28;20033;-72
2022/05/26 14:19:33;;;;;;;2.33;0.63;;;;;;;;;;5022497;28;20124;-72
2022/05/26 14:22:00;;;;;;;5.07;0.40;;;;;;;;;;5022482;28;20412;-72
2022/05/26 14:24:29;;;;;;;2.17;0.40;;;;;;;;;;5024160;28;20145;-73
2022/05/26 14:27:04;;;;;;;3.08;0.40;;;;;;;;;;5021864;28;20048;-72
2022/05/26 14:29:30;;;;;;;4.85;0.50;;;;;;;;;;5024323;28;20108;-72
2022/05/26 14:32:08;;;;;;;1.20;0.40;;;;;;;;;;5024024;28;20032;-72
2022/05/26 14:34:36;;;;;;;1.15;0.30;;;;;;;;;;5023957;28;20075;-72
2022/05/26 14:37:02;;;;;;;3.75;0.40;;;;;;;;;;5024240;28;20028;-72
2022/05/26 14:39:28;;;;;;;1.55;0.30;;;;;;;;;;5022625;28;20034;-72
2022/05/26 14:41:55;;;;;;;2.80;0.40;;;;;;;;;;5022393;28;20041;-72
2022/05/26 14:44:21;;;;;;;1.77;0.32;;;;;;;;;;5026633;28;20555;-72
2022/05/26 14:46:47;;;;;;;2.13;0.30;;;;;;;;;;5022800;28;20044;-72
2022/05/26 14:49:14;;;;;;;2.33;0.47;;;;;;;;;;5021296;28;20037;-72
2022/05/26 14:51:42;;;;;;;5.90;0.55;;;;;;;;;;5023200;28;20078;-72
2022/05/26 14:56:53;;;;;;;1.75;0.30;;;;;;;;;;5024236;28;20538;-72
2022/05/26 14:59:19;;;;;;;4.15;0.50;;;;;;;;;;5017177;28;20041;-72
2022/05/26 15:01:46;;;;;;;4.15;0.30;;;;;;;;;;5021262;28;20061;-72
2022/05/26 15:04:12;;;;;;;2.97;0.30;;;;;;;;;;5020498;28;20055;-72
2022/05/26 15:06:40;;;;;;;1.08;0.28;;;;;;;;;;5018765;28;20027;-72
2022/05/26 15:09:26;;;;;;;3.08;0.52;;;;;;;;;;5019084;28;20079;-73
2022/05/26 15:11:53;;;;;;;3.25;0.30;;;;;;;;;;5015842;28;20136;-72
2022/05/26 15:14:19;;;;;;;2.17;0.40;;;;;;;;;;5024641;28;20076;-72
2022/05/26 15:16:47;;;;;;;4.95;0.38;;;;;;;;;;5015252;28;20029;-72
2022/05/26 15:19:16;;;;;;;2.78;0.25;;;;;;;;;;5025050;28;20078;-72
2022/05/26 15:21:42;;;;;;;1.55;0.20;;;;;;;;;;5022217;28;20106;-72
2022/05/26 15:24:08;;;;;;;1.13;0.30;;;;;;;;;;5024933;28;20447;-72
2022/05/26 15:26:34;;;;;;;4.43;0.30;;;;;;;;;;5024826;28;20088;-72
2022/05/26 15:29:00;;;;;;;2.90;0.82;;;;;;;;;;5021727;28;20033;-73
2022/05/26 15:31:26;;;;;;;1.45;0.20;;;;;;;;;;5021567;28;20020;-72
2022/05/26 15:33:52;;;;;;;3.70;0.40;;;;;;;;;;5021760;28;20378;-72
2022/05/26 15:36:21;;;;;;;1.02;0.20;;;;;;;;;;5021448;28;20037;-73
2022/05/26 15:38:51;;;;;;;5.90;0.50;;;;;;;;;;5023463;28;20043;-72
2022/05/26 15:41:18;;;;;;;2.45;0.30;;;;;;;;;;5019568;28;20033;-72